Time;durP1;ratioP1;P1;durP2;ratioP2;P2;SDS_P1;SDS_P2;PMS_P1;PMS_P2;Temp;Humidity;BMP_temperature;BMP_pressure;BME280_temperature;BME280_humidity;BME280_pressure;Samples;Min_cycle;Max_cycle;Signal;HPM_P1;HPM_P2
2023/07/17 00:01:52;;;;;;;3.10;2.80;;;29.50;60.00;;;;;;5044870;28;20455;-71
2023/07/17 00:04:21;;;;;;;3.07;2.83;;;29.50;60.10;;;;;;5049499;28;20506;-65
2023/07/17 00:06:51;;;;;;;3.10;2.90;;;29.50;60.10;;;;;;5053241;28;20458;-72
2023/07/17 00:09:19;;;;;;;5.30;3.33;;;29.50;60.20;;;;;;5052870;28;20868;-72
2023/07/17 00:11:47;;;;;;;2.83;2.63;;;29.50;60.20;;;;;;5051585;28;21018;-71
2023/07/17 00:14:15;;;;;;;3.00;2.80;;;29.50;60.30;;;;;;5051334;28;20490;-71
2023/07/17 00:16:43;;;;;;;2.67;2.47;;;29.50;60.30;;;;;;5048384;28;20934;-64
2023/07/17 00:19:12;;;;;;;3.70;3.40;;;29.40;60.40;;;;;;5054791;28;20482;-64
2023/07/17 00:21:40;;;;;;;2.70;2.50;;;29.40;60.40;;;;;;5035220;28;20524;-65
2023/07/17 00:24:09;;;;;;;3.37;3.07;;;29.40;60.50;;;;;;5054436;28;21003;-65
2023/07/17 00:26:38;;;;;;;2.13;2.03;;;29.40;60.50;;;;;;5044083;28;20492;-69
2023/07/17 00:29:24;;;;;;;3.33;3.13;;;29.40;60.40;;;;;;5043465;28;20460;-72
2023/07/17 00:31:53;;;;;;;5.23;2.80;;;29.40;60.30;;;;;;5052182;28;20451;-65
2023/07/17 00:34:22;;;;;;;2.90;2.70;;;29.30;60.30;;;;;;5060967;28;20432;-75
2023/07/17 00:36:50;;;;;;;4.20;3.30;;;29.30;60.20;;;;;;5041565;28;20469;-66
2023/07/17 00:39:20;;;;;;;2.50;2.30;;;29.30;60.20;;;;;;5034544;28;21068;-65
2023/07/17 00:41:51;;;;;;;2.87;2.67;;;29.30;60.20;;;;;;5034114;28;20972;-67
2023/07/17 00:44:19;;;;;;;2.63;2.53;;;29.30;60.20;;;;;;5050136;28;20458;-65
2023/07/17 00:46:50;;;;;;;3.97;2.97;;;29.30;60.10;;;;;;5049972;28;20487;-72
2023/07/17 00:49:18;;;;;;;2.30;2.20;;;29.30;60.10;;;;;;5037803;28;20502;-65
2023/07/17 00:51:48;;;;;;;4.60;3.17;;;29.20;60.10;;;;;;5036996;28;20464;-67
2023/07/17 00:54:16;;;;;;;2.93;2.73;;;29.20;60.10;;;;;;5039939;28;20532;-72
2023/07/17 00:56:46;;;;;;;2.57;2.40;;;29.20;60.10;;;;;;5050739;28;20467;-65
2023/07/17 00:59:15;;;;;;;3.27;2.93;;;29.20;60.00;;;;;;5029991;28;20528;-67
2023/07/17 01:01:44;;;;;;;4.87;3.10;;;29.20;60.10;;;;;;5032317;28;20462;-66
2023/07/17 01:04:13;;;;;;;3.53;3.27;;;29.20;60.10;;;;;;5037673;28;20865;-67
2023/07/17 01:06:42;;;;;;;3.17;2.83;;;29.20;60.10;;;;;;5051373;28;20455;-65
2023/07/17 01:09:12;;;;;;;3.40;2.70;;;29.20;60.10;;;;;;5057587;28;21031;-67
2023/07/17 01:11:41;;;;;;;3.10;2.80;;;29.20;60.10;;;;;;5054429;28;20461;-66
2023/07/17 01:14:16;;;;;;;3.13;2.80;;;29.10;60.10;;;;;;5056583;28;20479;-80
2023/07/17 01:16:47;;;;;;;2.20;2.00;;;29.10;60.30;;;;;;5032268;28;20818;-67
2023/07/17 01:19:16;;;;;;;3.83;3.00;;;29.10;60.30;;;;;;5055090;28;20452;-67
2023/07/17 01:21:50;;;;;;;3.37;2.97;;;29.10;60.40;;;;;;5033017;28;20514;-65
2023/07/17 01:24:20;;;;;;;6.20;2.90;;;29.10;60.40;;;;;;5043316;28;20467;-74
2023/07/17 01:26:48;;;;;;;2.63;2.43;;;29.10;60.70;;;;;;5032653;28;20457;-69
2023/07/17 01:29:16;;;;;;;2.90;2.67;;;29.10;60.50;;;;;;5053469;28;20462;-73
2023/07/17 01:31:45;;;;;;;2.47;2.27;;;29.10;60.40;;;;;;5050381;28;20458;-65
2023/07/17 01:34:14;;;;;;;2.50;2.30;;;29.10;60.40;;;;;;5034657;28;20481;-66
2023/07/17 01:36:42;;;;;;;3.60;2.80;;;29.10;60.50;;;;;;5052336;28;20454;-69
2023/07/17 01:39:10;;;;;;;3.33;3.07;;;29.10;60.50;;;;;;5046109;28;20536;-67
2023/07/17 01:41:40;;;;;;;6.40;3.10;;;29.10;60.50;;;;;;5033747;28;21032;-65
2023/07/17 01:44:08;;;;;;;3.00;2.70;;;29.10;60.40;;;;;;5057131;28;20464;-72
2023/07/17 01:46:37;;;;;;;2.77;2.57;;;29.10;60.30;;;;;;5051838;28;20491;-70
2023/07/17 01:49:05;;;;;;;3.27;2.87;;;29.00;60.30;;;;;;5052005;28;20558;-65
2023/07/17 01:51:33;;;;;;;3.63;2.43;;;29.00;60.10;;;;;;5031628;28;20526;-66
2023/07/17 01:54:01;;;;;;;3.63;2.80;;;29.00;60.10;;;;;;5041008;28;20480;-65
2023/07/17 01:56:29;;;;;;;3.23;2.93;;;29.00;60.20;;;;;;5051077;28;20466;-67
2023/07/17 01:58:59;;;;;;;5.33;3.00;;;29.00;60.10;;;;;;5032924;28;20458;-68
2023/07/17 02:01:27;;;;;;;3.50;2.73;;;29.00;60.10;;;;;;5035735;28;20466;-66
2023/07/17 02:03:55;;;;;;;3.67;3.23;;;29.00;60.10;;;;;;5048106;28;20458;-64
2023/07/17 02:06:24;;;;;;;3.20;2.77;;;29.00;60.20;;;;;;5033937;28;20455;-65
2023/07/17 02:08:54;;;;;;;2.73;2.40;;;28.90;60.20;;;;;;5033422;28;20462;-65
2023/07/17 02:11:26;;;;;;;3.77;2.73;;;28.90;60.30;;;;;;5025178;28;20834;-69
2023/07/17 02:13:55;;;;;;;3.47;3.17;;;28.90;60.40;;;;;;5052508;28;20466;-65
2023/07/17 02:16:25;;;;;;;2.63;2.43;;;28.90;60.50;;;;;;5026410;28;20457;-65
2023/07/17 02:18:54;;;;;;;3.30;2.87;;;28.90;60.70;;;;;;5032705;28;20471;-65
2023/07/17 02:21:22;;;;;;;3.20;2.90;;;28.90;60.70;;;;;;5047569;28;20965;-65
2023/07/17 02:23:50;;;;;;;3.30;3.10;;;28.90;60.80;;;;;;5029502;28;20473;-66
2023/07/17 02:26:19;;;;;;;4.47;2.63;;;28.90;60.80;;;;;;5025699;28;21038;-65
2023/07/17 02:28:47;;;;;;;3.37;3.07;;;28.90;60.80;;;;;;5045877;28;20491;-68
2023/07/17 02:31:15;;;;;;;3.47;3.17;;;28.90;60.80;;;;;;5057970;28;20502;-67
2023/07/17 02:33:45;;;;;;;3.17;2.87;;;28.90;60.90;;;;;;5053654;28;20511;-64
2023/07/17 02:36:14;;;;;;;6.50;3.10;;;28.80;60.80;;;;;;5029588;28;20867;-66
2023/07/17 02:38:44;;;;;;;4.73;3.27;;;28.90;60.80;;;;;;5042456;28;20968;-65
2023/07/17 02:41:13;;;;;;;3.00;2.80;;;28.80;60.90;;;;;;5029692;28;20499;-65
2023/07/17 02:43:42;;;;;;;2.67;2.47;;;28.80;60.90;;;;;;5051060;28;20790;-68
2023/07/17 02:46:10;;;;;;;4.57;3.00;;;28.80;60.80;;;;;;5046262;28;20460;-74
2023/07/17 02:48:38;;;;;;;3.20;2.90;;;28.80;60.80;;;;;;5042284;28;20462;-68
2023/07/17 02:51:09;;;;;;;4.17;3.20;;;28.80;60.80;;;;;;5056218;28;20462;-71
2023/07/17 02:53:37;;;;;;;2.90;2.30;;;28.80;60.70;;;;;;5043630;28;20540;-67
2023/07/17 02:56:05;;;;;;;3.43;3.13;;;28.80;60.70;;;;;;5046871;28;20470;-66
2023/07/17 02:58:34;;;;;;;4.37;2.70;;;28.80;60.70;;;;;;5052534;28;20524;-65
2023/07/17 03:01:02;;;;;;;4.10;2.70;;;28.70;60.60;;;;;;5033786;28;20474;-64
2023/07/17 03:03:30;;;;;;;2.67;2.47;;;28.80;60.60;;;;;;5026245;28;20455;-65
2023/07/17 03:05:58;;;;;;;3.10;2.90;;;28.70;60.60;;;;;;5046388;28;20530;-64
2023/07/17 03:08:28;;;;;;;3.03;2.80;;;28.70;60.60;;;;;;5047837;28;20520;-68
2023/07/17 03:10:56;;;;;;;3.40;2.80;;;28.70;60.80;;;;;;5049801;28;20489;-71
2023/07/17 03:13:25;;;;;;;3.20;2.90;;;28.70;61.00;;;;;;5050764;28;20451;-64
2023/07/17 03:15:58;;;;;;;4.00;3.60;;;28.70;61.00;;;;;;5056660;28;20467;-64
2023/07/17 03:18:27;;;;;;;3.57;2.90;;;28.70;61.10;;;;;;5035736;28;20469;-71
2023/07/17 03:20:55;;;;;;;5.50;3.47;;;28.70;61.30;;;;;;5031139;28;20459;-65
2023/07/17 03:23:24;;;;;;;3.23;3.00;;;28.70;61.40;;;;;;5027700;28;20461;-65
2023/07/17 03:25:56;;;;;;;3.50;3.20;;;28.70;61.50;;;;;;5053286;28;20503;-77
2023/07/17 03:28:24;;;;;;;5.27;2.57;;;28.70;61.70;;;;;;5039481;28;20457;-65
2023/07/17 03:30:56;;;;;;;2.83;2.53;;;28.70;61.60;;;;;;5024359;28;20467;-65
2023/07/17 03:33:24;;;;;;;3.70;2.60;;;28.70;61.70;;;;;;5042925;28;20469;-64
2023/07/17 03:35:53;;;;;;;3.53;2.70;;;28.70;61.90;;;;;;5045067;28;20518;-64
2023/07/17 03:38:21;;;;;;;3.67;3.37;;;28.60;61.80;;;;;;5031702;28;20997;-64
2023/07/17 03:40:49;;;;;;;6.80;3.03;;;28.70;61.90;;;;;;5035311;28;20458;-65
2023/07/17 03:43:19;;;;;;;3.60;3.33;;;28.70;62.00;;;;;;5030346;28;20469;-69
2023/07/17 03:45:51;;;;;;;2.93;2.73;;;28.60;62.00;;;;;;5032728;28;20465;-65
2023/07/17 03:48:19;;;;;;;2.87;2.67;;;28.60;62.10;;;;;;5030286;28;20456;-64
2023/07/17 03:50:49;;;;;;;2.63;2.43;;;28.60;62.30;;;;;;5019113;28;20872;-71
2023/07/17 03:53:18;;;;;;;4.13;3.43;;;28.60;62.30;;;;;;5037997;28;20543;-68
2023/07/17 03:55:47;;;;;;;4.07;3.73;;;28.60;62.40;;;;;;5030625;28;20475;-67
2023/07/17 03:58:15;;;;;;;3.10;2.90;;;28.60;62.60;;;;;;5026772;28;20524;-65
2023/07/17 04:00:45;;;;;;;3.10;2.90;;;28.60;63.00;;;;;;5032642;28;21041;-70
2023/07/17 04:03:14;;;;;;;3.90;2.93;;;28.60;63.10;;;;;;5029052;28;20464;-64
2023/07/17 04:05:45;;;;;;;4.70;3.40;;;28.60;63.00;;;;;;5023547;28;20558;-65
2023/07/17 04:08:13;;;;;;;5.43;3.03;;;28.60;63.20;;;;;;5027857;28;20460;-65
2023/07/17 04:10:41;;;;;;;2.80;2.27;;;28.60;63.30;;;;;;5030022;28;20485;-65
2023/07/17 04:13:10;;;;;;;3.67;3.00;;;28.60;63.20;;;;;;5026210;28;20482;-64
2023/07/17 04:15:38;;;;;;;4.20;3.00;;;28.60;63.20;;;;;;5041472;28;20461;-68
2023/07/17 04:18:12;;;;;;;4.23;3.13;;;28.50;63.20;;;;;;5029421;28;20513;-76
2023/07/17 04:20:41;;;;;;;4.50;3.30;;;28.50;63.20;;;;;;5023955;28;20952;-64
2023/07/17 04:23:10;;;;;;;5.83;2.77;;;28.50;63.20;;;;;;5040837;28;20538;-65
2023/07/17 04:25:43;;;;;;;5.37;3.90;;;28.50;63.30;;;;;;5036236;28;20869;-65
2023/07/17 04:28:12;;;;;;;4.37;3.00;;;28.50;63.30;;;;;;5024613;28;20465;-68
2023/07/17 04:30:41;;;;;;;3.27;3.07;;;28.50;63.30;;;;;;5026672;28;20466;-64
2023/07/17 04:33:13;;;;;;;2.90;2.70;;;28.50;63.30;;;;;;5026674;28;20481;-65
2023/07/17 04:35:43;;;;;;;3.30;3.00;;;28.50;63.30;;;;;;5031256;28;20477;-64
2023/07/17 04:38:12;;;;;;;4.37;3.13;;;28.50;63.40;;;;;;5031140;28;20488;-69
2023/07/17 04:40:40;;;;;;;5.57;2.80;;;28.50;63.30;;;;;;5036582;28;20975;-64
2023/07/17 04:43:10;;;;;;;4.70;2.90;;;28.50;63.50;;;;;;5036644;28;21023;-65
2023/07/17 04:45:42;;;;;;;3.63;3.20;;;28.50;63.40;;;;;;5031193;28;20556;-65
2023/07/17 04:48:17;;;;;;;4.83;3.53;;;28.50;63.40;;;;;;5023781;28;20475;-67
2023/07/17 04:50:46;;;;;;;3.17;2.87;;;28.50;63.50;;;;;;5044077;28;20944;-68
2023/07/17 04:53:15;;;;;;;3.20;2.90;;;28.50;63.60;;;;;;5028757;28;20519;-70
2023/07/17 04:55:43;;;;;;;3.77;3.47;;;28.50;63.50;;;;;;5027318;28;20538;-67
2023/07/17 04:58:13;;;;;;;3.37;2.90;;;28.50;63.60;;;;;;5042085;28;20456;-70
2023/07/17 05:00:46;;;;;;;4.20;3.30;;;28.50;63.50;;;;;;5039639;28;20502;-67
2023/07/17 05:03:15;;;;;;;4.07;3.03;;;28.50;63.40;;;;;;5029875;28;20450;-66
2023/07/17 05:05:51;;;;;;;6.00;3.90;;;28.50;63.40;;;;;;5045569;28;20815;-65
2023/07/17 05:08:19;;;;;;;4.80;3.77;;;28.50;63.50;;;;;;5043044;28;20461;-68
2023/07/17 05:10:55;;;;;;;3.80;3.50;;;28.50;63.70;;;;;;5058689;28;20466;-66
2023/07/17 05:13:28;;;;;;;3.50;3.20;;;28.50;63.90;;;;;;5029752;28;20469;-65
2023/07/17 05:15:57;;;;;;;3.63;2.87;;;28.50;63.80;;;;;;5048908;28;20942;-65
2023/07/17 05:18:25;;;;;;;4.00;3.00;;;28.50;63.90;;;;;;5028244;28;20803;-72
2023/07/17 05:20:55;;;;;;;3.63;3.00;;;28.50;63.80;;;;;;5054864;28;20516;-65
2023/07/17 05:23:24;;;;;;;3.43;3.13;;;28.50;63.90;;;;;;5030951;28;20465;-64
2023/07/17 05:25:55;;;;;;;3.73;3.43;;;28.50;64.00;;;;;;5029960;28;20462;-65
2023/07/17 05:28:27;;;;;;;4.07;3.67;;;28.50;64.00;;;;;;5041125;28;20473;-66
2023/07/17 05:30:57;;;;;;;4.77;3.57;;;28.50;63.80;;;;;;5026969;28;20878;-65
2023/07/17 05:33:26;;;;;;;4.43;4.03;;;28.50;63.90;;;;;;5027626;28;20957;-65
2023/07/17 05:35:56;;;;;;;5.77;4.90;;;28.50;64.00;;;;;;5045034;28;20465;-67
2023/07/17 05:38:28;;;;;;;4.07;3.77;;;28.50;64.20;;;;;;5025857;28;21090;-66
2023/07/17 05:41:00;;;;;;;4.57;4.20;;;28.50;64.10;;;;;;5028958;28;20590;-66
2023/07/17 05:43:31;;;;;;;3.73;3.43;;;28.50;64.20;;;;;;5029236;28;20497;-65
2023/07/17 05:46:06;;;;;;;4.90;3.87;;;28.50;64.30;;;;;;5024620;28;20561;-77
2023/07/17 05:48:34;;;;;;;6.40;4.77;;;28.50;64.20;;;;;;5033379;28;20478;-66
2023/07/17 05:51:04;;;;;;;5.00;3.20;;;28.50;64.00;;;;;;5027576;28;20468;-70
2023/07/17 05:53:32;;;;;;;4.20;3.23;;;28.50;63.90;;;;;;5058369;28;20511;-72
2023/07/17 05:56:00;;;;;;;5.97;3.80;;;28.50;64.00;;;;;;5052003;28;20547;-66
2023/07/17 05:58:29;;;;;;;4.40;3.53;;;28.50;64.00;;;;;;5028204;28;20470;-68
2023/07/17 06:00:57;;;;;;;4.60;3.77;;;28.50;64.20;;;;;;5029632;28;20460;-68
2023/07/17 06:03:26;;;;;;;4.40;3.50;;;28.50;64.30;;;;;;5033720;28;20710;-66
2023/07/17 06:05:54;;;;;;;5.30;4.20;;;28.60;64.20;;;;;;5044796;28;20456;-68
2023/07/17 06:08:24;;;;;;;2.80;2.60;;;28.60;64.30;;;;;;5047423;28;20518;-66
2023/07/17 06:10:52;;;;;;;3.80;3.43;;;28.60;64.20;;;;;;5043132;28;20472;-65
2023/07/17 06:13:20;;;;;;;4.80;3.43;;;28.60;64.10;;;;;;5045020;28;20487;-65
2023/07/17 06:15:48;;;;;;;4.90;4.30;;;28.60;64.20;;;;;;5051809;28;20473;-68
2023/07/17 06:18:17;;;;;;;4.27;3.73;;;28.60;64.30;;;;;;5045355;28;20474;-68
2023/07/17 06:20:45;;;;;;;4.40;3.53;;;28.60;64.20;;;;;;5048933;28;20469;-73
2023/07/17 06:23:13;;;;;;;3.93;3.20;;;28.60;64.20;;;;;;5038424;28;20464;-71
2023/07/17 06:25:43;;;;;;;5.60;3.40;;;28.60;64.10;;;;;;5036826;28;20550;-67
2023/07/17 06:28:12;;;;;;;4.30;3.90;;;28.60;64.30;;;;;;5038824;28;20467;-65
2023/07/17 06:30:40;;;;;;;5.23;4.83;;;28.60;64.20;;;;;;5039576;28;20456;-65
2023/07/17 06:33:08;;;;;;;3.50;3.20;;;28.60;64.20;;;;;;5030154;28;20458;-65
2023/07/17 06:35:36;;;;;;;4.70;3.87;;;28.60;64.10;;;;;;5040225;28;20507;-70
2023/07/17 06:38:04;;;;;;;4.50;3.00;;;28.60;64.10;;;;;;5050637;28;20485;-65
2023/07/17 06:40:34;;;;;;;4.03;3.60;;;28.60;64.10;;;;;;5038689;28;20463;-66
2023/07/17 06:43:04;;;;;;;4.10;3.60;;;28.60;64.10;;;;;;5042766;28;20953;-70
2023/07/17 06:45:32;;;;;;;4.20;3.80;;;28.60;64.10;;;;;;5043040;28;20466;-70
2023/07/17 06:48:00;;;;;;;3.67;3.37;;;28.60;63.90;;;;;;5041865;28;20492;-67
2023/07/17 06:50:30;;;;;;;6.10;3.80;;;28.60;63.90;;;;;;5041017;28;20550;-65
2023/07/17 06:52:58;;;;;;;4.83;3.20;;;28.60;63.80;;;;;;5032796;28;20468;-69
2023/07/17 06:55:26;;;;;;;4.53;3.87;;;28.60;63.80;;;;;;5038501;28;20543;-69
2023/07/17 06:57:54;;;;;;;3.97;3.67;;;28.60;63.80;;;;;;5025842;28;20523;-65
2023/07/17 07:00:24;;;;;;;4.70;3.77;;;28.60;63.60;;;;;;5041710;28;20526;-69
2023/07/17 07:02:53;;;;;;;3.40;3.13;;;28.60;63.70;;;;;;5039144;28;20465;-65
2023/07/17 07:05:22;;;;;;;2.83;2.63;;;28.60;63.60;;;;;;5050229;28;20464;-64
2023/07/17 07:07:50;;;;;;;3.60;3.27;;;28.60;63.50;;;;;;5045691;28;21024;-66
2023/07/17 07:10:18;;;;;;;3.60;3.30;;;28.70;63.50;;;;;;5045516;28;20968;-66
2023/07/17 07:12:47;;;;;;;3.80;3.33;;;28.70;63.60;;;;;;5047720;28;20524;-70
2023/07/17 07:15:15;;;;;;;4.93;3.60;;;28.70;63.40;;;;;;5044233;28;20458;-65
2023/07/17 07:17:45;;;;;;;3.80;3.50;;;28.70;63.40;;;;;;5042524;28;20531;-74
2023/07/17 07:20:13;;;;;;;3.60;3.10;;;28.70;63.40;;;;;;5048153;28;20545;-65
2023/07/17 07:22:42;;;;;;;3.60;3.30;;;28.70;63.30;;;;;;5041450;28;20460;-67
2023/07/17 07:25:10;;;;;;;3.80;3.17;;;28.70;63.40;;;;;;5044142;28;20467;-66
2023/07/17 07:27:39;;;;;;;5.30;2.93;;;28.70;63.40;;;;;;5046142;28;20466;-65
2023/07/17 07:30:08;;;;;;;3.20;2.90;;;28.70;63.30;;;;;;5049696;28;20525;-71
2023/07/17 07:32:36;;;;;;;3.10;2.80;;;28.70;63.40;;;;;;5046779;28;20546;-72
2023/07/17 07:35:06;;;;;;;2.90;2.70;;;28.70;63.40;;;;;;5049008;28;20548;-68
2023/07/17 07:37:35;;;;;;;3.90;3.33;;;28.70;63.40;;;;;;5051591;28;20494;-65
2023/07/17 07:40:05;;;;;;;3.33;3.03;;;28.80;63.40;;;;;;5045361;28;20509;-65
2023/07/17 07:42:34;;;;;;;3.77;3.37;;;28.80;63.40;;;;;;5045456;28;21003;-65
2023/07/17 07:45:02;;;;;;;3.27;3.07;;;28.80;63.40;;;;;;5055544;28;20952;-72
2023/07/17 07:47:31;;;;;;;4.80;3.40;;;28.80;63.40;;;;;;5052058;28;20468;-66
2023/07/17 07:49:59;;;;;;;3.60;3.30;;;28.80;63.40;;;;;;5049803;28;20454;-65
2023/07/17 07:52:29;;;;;;;3.90;3.60;;;28.80;63.40;;;;;;5046997;28;20496;-65
2023/07/17 07:54:57;;;;;;;3.30;3.00;;;28.80;63.50;;;;;;5053669;28;21006;-65
2023/07/17 07:57:28;;;;;;;4.07;3.77;;;28.80;63.40;;;;;;5048154;28;20478;-65
2023/07/17 07:59:56;;;;;;;3.23;2.93;;;28.80;63.40;;;;;;5053901;28;20464;-67
2023/07/17 08:02:24;;;;;;;3.13;2.93;;;28.80;63.40;;;;;;5054640;28;20494;-67
2023/07/17 08:04:53;;;;;;;5.13;3.70;;;28.80;63.40;;;;;;5046238;28;20556;-65
2023/07/17 08:07:21;;;;;;;4.00;3.27;;;28.80;63.40;;;;;;5048888;28;20470;-66
2023/07/17 08:09:50;;;;;;;4.40;3.20;;;28.80;63.40;;;;;;5052291;28;20516;-65
2023/07/17 08:12:21;;;;;;;2.77;2.57;;;28.80;63.50;;;;;;5047353;28;20477;-66
2023/07/17 08:14:50;;;;;;;3.50;3.20;;;28.80;63.40;;;;;;5046371;28;20485;-68
2023/07/17 08:17:18;;;;;;;3.60;3.30;;;28.80;63.40;;;;;;5047346;28;20477;-65
2023/07/17 08:19:46;;;;;;;3.40;3.20;;;28.80;63.40;;;;;;5045741;28;20472;-69
2023/07/17 08:22:15;;;;;;;3.20;2.90;;;28.80;63.40;;;;;;5049146;28;20461;-66
2023/07/17 08:24:43;;;;;;;3.90;3.60;;;28.80;63.40;;;;;;5054861;28;20517;-65
2023/07/17 08:27:12;;;;;;;3.40;3.10;;;28.80;63.40;;;;;;5055178;28;20454;-68
2023/07/17 08:29:40;;;;;;;3.33;3.03;;;28.80;63.30;;;;;;5053308;28;20466;-66
2023/07/17 08:32:11;;;;;;;3.80;3.50;;;28.80;63.30;;;;;;5053577;28;20456;-66
2023/07/17 08:34:39;;;;;;;4.63;3.47;;;28.80;63.30;;;;;;5054871;28;20532;-65
2023/07/17 08:37:08;;;;;;;3.70;3.40;;;28.80;63.20;;;;;;5057546;28;21022;-66
2023/07/17 08:39:36;;;;;;;2.97;2.77;;;28.80;63.20;;;;;;5048794;28;20468;-73
2023/07/17 08:42:04;;;;;;;3.60;3.30;;;28.80;63.20;;;;;;5047456;28;20466;-65
2023/07/17 08:44:35;;;;;;;3.60;3.27;;;28.80;63.30;;;;;;5051356;28;20861;-71
2023/07/17 08:47:05;;;;;;;3.07;2.87;;;28.70;63.30;;;;;;5048652;28;20498;-66
2023/07/17 08:49:34;;;;;;;3.87;3.43;;;28.70;63.30;;;;;;5056774;28;20496;-69
2023/07/17 08:52:04;;;;;;;3.60;3.40;;;28.70;63.30;;;;;;5050499;28;20468;-69
2023/07/17 08:54:34;;;;;;;3.77;3.47;;;28.70;63.30;;;;;;5055420;28;20457;-65
2023/07/17 08:57:04;;;;;;;3.70;3.40;;;28.70;63.10;;;;;;5048766;28;20539;-68
2023/07/17 08:59:34;;;;;;;3.70;3.40;;;28.70;63.20;;;;;;5060551;28;20454;-68
2023/07/17 09:02:04;;;;;;;3.20;3.00;;;28.70;63.10;;;;;;5046662;28;20962;-66
2023/07/17 09:04:34;;;;;;;3.70;3.40;;;28.70;63.00;;;;;;5052986;28;21018;-65
2023/07/17 09:07:03;;;;;;;3.60;3.30;;;28.70;63.00;;;;;;5051187;28;20801;-70
2023/07/17 09:09:31;;;;;;;3.67;3.37;;;28.70;63.00;;;;;;5051905;28;20462;-65
2023/07/17 09:12:10;;;;;;;4.20;3.90;;;28.70;63.00;;;;;;5052264;28;20454;-76
2023/07/17 09:14:39;;;;;;;3.43;3.13;;;28.70;63.00;;;;;;5051393;28;20458;-65
2023/07/17 09:17:09;;;;;;;3.83;3.47;;;28.70;63.00;;;;;;5052478;28;20470;-65
2023/07/17 09:19:38;;;;;;;4.93;3.77;;;28.70;62.90;;;;;;5049928;28;20461;-65
2023/07/17 09:22:07;;;;;;;4.00;3.30;;;28.70;62.90;;;;;;5045014;28;20928;-69
2023/07/17 09:24:37;;;;;;;3.93;3.60;;;28.70;62.90;;;;;;5054094;28;20471;-64
2023/07/17 09:27:07;;;;;;;5.17;3.83;;;28.70;62.90;;;;;;5048489;28;20466;-65
2023/07/17 09:29:42;;;;;;;5.97;3.40;;;28.80;62.80;;;;;;5048228;28;20482;-65
2023/07/17 09:32:19;;;;;;;5.37;3.63;;;28.70;62.70;;;;;;5053161;28;20470;-67
2023/07/17 09:34:52;;;;;;;3.73;3.43;;;28.80;62.80;;;;;;5046888;28;21023;-66
2023/07/17 09:37:20;;;;;;;3.70;3.03;;;28.80;62.80;;;;;;5049563;28;20482;-70
2023/07/17 09:39:52;;;;;;;3.37;3.07;;;28.70;62.60;;;;;;5046210;28;20460;-65
2023/07/17 09:42:24;;;;;;;4.37;3.43;;;28.70;62.70;;;;;;5047175;28;20466;-72
2023/07/17 09:44:54;;;;;;;4.37;3.20;;;28.80;62.70;;;;;;5052440;28;20504;-66
2023/07/17 09:47:22;;;;;;;3.77;3.37;;;28.80;62.60;;;;;;5049651;28;20490;-67
2023/07/17 09:49:51;;;;;;;4.10;3.57;;;28.80;62.40;;;;;;5047827;28;20494;-73
2023/07/17 09:52:20;;;;;;;3.50;3.20;;;28.80;62.40;;;;;;5048280;28;20456;-66
2023/07/17 09:54:50;;;;;;;4.43;3.80;;;28.80;62.50;;;;;;5053704;28;20485;-66
2023/07/17 09:57:27;;;;;;;3.90;3.60;;;28.80;62.40;;;;;;5036716;28;20488;-65
2023/07/17 09:59:59;;;;;;;4.17;3.77;;;28.80;62.40;;;;;;5054726;28;20457;-65
2023/07/17 10:02:31;;;;;;;3.53;2.90;;;28.80;62.50;;;;;;5051795;28;20515;-69
2023/07/17 10:05:01;;;;;;;2.93;2.73;;;28.80;62.40;;;;;;5049968;28;20961;-65
2023/07/17 10:07:30;;;;;;;3.53;3.17;;;28.80;62.30;;;;;;5049584;28;20467;-65
2023/07/17 10:10:00;;;;;;;4.33;3.40;;;28.80;62.30;;;;;;5051445;28;20547;-65
2023/07/17 10:12:29;;;;;;;3.80;3.50;;;28.90;62.30;;;;;;5047542;28;20961;-72
2023/07/17 10:14:59;;;;;;;5.17;3.30;;;28.90;62.20;;;;;;5049612;28;20461;-66
2023/07/17 10:17:33;;;;;;;3.27;3.07;;;28.90;62.20;;;;;;5044648;28;20490;-65
2023/07/17 10:20:04;;;;;;;2.97;2.77;;;28.90;61.90;;;;;;5046274;28;20506;-69
2023/07/17 10:22:34;;;;;;;4.07;3.50;;;28.90;61.50;;;;;;5026677;28;20865;-70
2023/07/17 10:25:23;;;;;;;3.67;3.37;;;28.90;61.50;;;;;;5049182;28;20493;-68
2023/07/17 10:27:57;;;;;;;3.90;3.50;;;28.80;61.30;;;;;;5043760;28;20811;-65
2023/07/17 10:30:29;;;;;;;4.00;3.50;;;28.80;61.30;;;;;;5029736;28;20530;-65
2023/07/17 10:33:14;;;;;;;3.33;3.13;;;28.70;61.30;;;;;;5050916;28;20461;-70
2023/07/17 10:35:47;;;;;;;6.47;3.70;;;28.70;61.30;;;;;;5046055;28;20488;-65
2023/07/17 10:38:17;;;;;;;3.97;3.60;;;28.70;61.10;;;;;;5048683;28;20563;-64
2023/07/17 10:40:46;;;;;;;3.70;3.23;;;28.80;61.30;;;;;;5050098;28;20476;-67
2023/07/17 10:43:16;;;;;;;3.00;2.80;;;28.70;61.10;;;;;;5048598;28;20595;-65
2023/07/17 10:45:48;;;;;;;3.37;3.17;;;28.80;61.10;;;;;;5054681;28;20451;-66
2023/07/17 10:48:17;;;;;;;5.60;3.80;;;28.80;61.30;;;;;;5043074;28;20494;-65
2023/07/17 10:50:51;;;;;;;4.03;3.63;;;28.70;61.10;;;;;;5053668;28;20457;-65
2023/07/17 10:53:20;;;;;;;4.13;3.63;;;28.80;61.10;;;;;;5050141;28;20461;-71
2023/07/17 10:55:49;;;;;;;4.67;3.47;;;28.80;61.30;;;;;;5042088;28;20458;-65
2023/07/17 10:58:20;;;;;;;3.80;3.50;;;28.70;60.80;;;;;;5050676;28;20477;-67
2023/07/17 11:00:49;;;;;;;3.87;3.57;;;28.80;60.60;;;;;;5050002;28;20991;-74
2023/07/17 11:03:20;;;;;;;13.90;8.63;;;28.80;60.90;;;;;;5051440;28;20474;-76
2023/07/17 11:05:48;;;;;;;11.77;8.33;;;28.80;61.00;;;;;;5052409;28;20455;-70
2023/07/17 11:08:17;;;;;;;8.30;6.20;;;28.80;60.70;;;;;;5047064;28;20465;-69
2023/07/17 11:10:45;;;;;;;21.33;6.90;;;28.80;60.90;;;;;;5045464;28;20869;-65
2023/07/17 11:13:14;;;;;;;8.87;7.57;;;28.80;61.00;;;;;;5053223;28;21150;-64
2023/07/17 11:15:44;;;;;;;7.00;6.30;;;28.80;60.70;;;;;;5047601;28;20465;-66
2023/07/17 11:18:14;;;;;;;6.93;6.33;;;28.80;59.90;;;;;;5048410;28;20468;-65
2023/07/17 11:20:42;;;;;;;5.90;5.33;;;28.80;60.40;;;;;;5045154;28;20496;-65
2023/07/17 11:23:11;;;;;;;6.83;5.97;;;28.80;60.20;;;;;;5050755;28;20503;-70
2023/07/17 11:25:41;;;;;;;10.97;5.97;;;28.80;60.20;;;;;;5051677;28;20947;-70
2023/07/17 11:28:09;;;;;;;7.13;5.77;;;28.80;59.90;;;;;;5051935;28;20521;-65
2023/07/17 11:30:37;;;;;;;5.93;5.33;;;28.80;59.90;;;;;;5034795;28;20497;-65
2023/07/17 11:33:07;;;;;;;5.83;5.20;;;28.80;59.80;;;;;;5048882;28;20468;-65
2023/07/17 11:35:42;;;;;;;8.53;5.37;;;28.90;59.90;;;;;;5050188;28;20460;-65
2023/07/17 11:38:12;;;;;;;5.20;4.50;;;28.90;60.20;;;;;;5043631;28;20485;-65
2023/07/17 11:40:50;;;;;;;6.77;4.57;;;28.90;60.10;;;;;;5055595;28;20510;-65
2023/07/17 11:43:25;;;;;;;5.77;4.37;;;28.80;59.60;;;;;;5050090;28;20468;-65
2023/07/17 11:45:55;;;;;;;4.57;4.13;;;28.80;60.10;;;;;;5046922;28;20456;-65
2023/07/17 11:48:25;;;;;;;4.90;3.90;;;28.80;59.90;;;;;;5051686;28;20496;-65
2023/07/17 11:50:56;;;;;;;5.83;5.10;;;28.80;59.60;;;;;;5047518;28;20455;-67
2023/07/17 11:53:26;;;;;;;5.17;4.27;;;28.80;59.30;;;;;;5057784;28;20454;-67
2023/07/17 11:55:55;;;;;;;4.20;3.80;;;28.90;59.20;;;;;;5058906;28;20819;-70
2023/07/17 11:58:26;;;;;;;4.67;4.03;;;28.90;59.60;;;;;;5057966;28;20470;-65
2023/07/17 12:00:56;;;;;;;5.30;4.37;;;28.90;59.50;;;;;;5056620;28;20969;-76
2023/07/17 12:03:25;;;;;;;4.30;3.83;;;28.90;58.90;;;;;;5031215;28;20817;-77
2023/07/17 12:05:53;;;;;;;4.60;4.13;;;29.00;58.60;;;;;;5054608;28;20462;-75
2023/07/17 12:08:23;;;;;;;6.90;3.80;;;29.10;58.50;;;;;;5054806;28;20536;-75
2023/07/17 12:10:52;;;;;;;4.90;4.43;;;29.10;58.60;;;;;;5057135;28;20511;-74
2023/07/17 12:13:20;;;;;;;4.93;4.30;;;29.20;58.80;;;;;;5051622;28;21052;-74
2023/07/17 12:15:48;;;;;;;5.33;4.03;;;29.30;58.90;;;;;;5036502;28;20486;-75
2023/07/17 12:18:16;;;;;;;6.40;4.27;;;29.50;59.00;;;;;;5054297;28;20457;-74
2023/07/17 12:20:44;;;;;;;4.00;3.40;;;29.60;58.70;;;;;;5047504;28;20473;-75
2023/07/17 12:23:14;;;;;;;4.93;4.33;;;29.80;58.50;;;;;;5034955;28;20485;-76
2023/07/17 12:25:46;;;;;;;4.03;3.70;;;30.10;58.10;;;;;;5051535;28;20458;-75
2023/07/17 12:28:15;;;;;;;4.33;3.60;;;30.30;57.70;;;;;;5049584;28;20835;-71
2023/07/17 12:30:43;;;;;;;4.27;3.83;;;30.50;57.10;;;;;;5052451;28;20466;-76
2023/07/17 12:33:11;;;;;;;8.80;4.20;;;30.60;56.80;;;;;;5049601;28;20876;-74
2023/07/17 12:35:40;;;;;;;4.60;4.20;;;30.70;56.70;;;;;;5055664;28;20895;-75
2023/07/17 12:38:10;;;;;;;4.23;3.50;;;30.80;56.80;;;;;;5033687;28;20482;-75
2023/07/17 12:40:38;;;;;;;3.90;3.60;;;30.80;56.60;;;;;;5055270;28;20471;-73
2023/07/17 12:43:08;;;;;;;4.00;3.60;;;30.80;56.70;;;;;;5047913;28;20462;-74
2023/07/17 12:45:36;;;;;;;4.00;3.60;;;30.90;56.90;;;;;;5058784;28;20808;-75
2023/07/17 12:48:06;;;;;;;4.33;3.90;;;30.90;57.10;;;;;;5055305;28;20541;-74
2023/07/17 12:50:35;;;;;;;4.60;4.13;;;30.90;57.00;;;;;;5053877;28;20512;-68
2023/07/17 12:53:03;;;;;;;4.53;4.13;;;30.90;57.20;;;;;;5053308;28;20524;-72
2023/07/17 12:55:31;;;;;;;4.20;3.90;;;30.80;55.80;;;;;;5050504;28;20472;-73
2023/07/17 12:58:00;;;;;;;3.53;3.23;;;30.70;56.90;;;;;;5052322;28;20529;-73